Time;durP1;ratioP1;P1;durP2;ratioP2;P2;SDS_P1;SDS_P2;PMS_P1;PMS_P2;Temp;Humidity;BMP_temperature;BMP_pressure;BME280_temperature;BME280_humidity;BME280_pressure;Samples;Min_cycle;Max_cycle;Signal;HPM_P1;HPM_P2
2022/12/04 00:01:13;;;;;;;35.93;21.50;;;;;;;0.34;100.00;96393.19;5033663;28;20241;-63
2022/12/04 00:03:38;;;;;;;34.53;21.93;;;;;;;0.19;100.00;96396.69;5033819;28;20194;-63
2022/12/04 00:06:05;;;;;;;35.93;22.27;;;;;;;0.17;100.00;96388.34;5033579;28;20191;-63
2022/12/04 00:08:30;;;;;;;37.17;20.73;;;;;;;0.25;100.00;96398.59;5025614;28;20640;-63
2022/12/04 00:10:56;;;;;;;38.83;22.27;;;;;;;0.16;100.00;96405.59;5027697;28;20190;-64
2022/12/04 00:13:21;;;;;;;40.67;22.33;;;;;;;-0.04;100.00;96394.91;5024457;28;20179;-63
2022/12/04 00:15:47;;;;;;;37.40;21.90;;;;;;;0.12;100.00;96390.59;5033655;28;20247;-64
2022/12/04 00:18:12;;;;;;;39.20;22.80;;;;;;;0.12;100.00;96395.75;5005667;28;20234;-64
2022/12/04 00:20:39;;;;;;;38.90;22.90;;;;;;;0.31;100.00;96388.41;5032193;28;20221;-64
2022/12/04 00:23:04;;;;;;;42.97;24.17;;;;;;;0.25;100.00;96388.28;5010668;28;20187;-64
2022/12/04 00:25:30;;;;;;;39.53;23.33;;;;;;;0.27;100.00;96379.41;5026447;28;20248;-64
2022/12/04 00:27:55;;;;;;;37.67;23.33;;;;;;;0.36;100.00;96377.56;5033966;28;20609;-61
2022/12/04 00:30:20;;;;;;;40.00;23.43;;;;;;;0.49;100.00;96375.22;5033439;28;20703;-63
2022/12/04 00:32:46;;;;;;;36.63;21.50;;;;;;;0.33;100.00;96373.56;5033316;28;20190;-63
2022/12/04 00:35:11;;;;;;;31.50;20.63;;;;;;;0.16;100.00;96368.69;5033348;28;20186;-62
2022/12/04 00:37:37;;;;;;;34.13;21.50;;;;;;;0.03;100.00;96374.41;5032960;28;20210;-64
2022/12/04 00:40:02;;;;;;;35.17;22.27;;;;;;;0.14;100.00;96375.78;5033683;28;20193;-64
2022/12/04 00:42:28;;;;;;;28.37;19.90;;;;;;;0.33;100.00;96375.34;5032870;28;20313;-63
2022/12/04 00:44:53;;;;;;;35.50;21.83;;;;;;;0.31;100.00;96383.25;5032594;28;20257;-63
2022/12/04 00:47:18;;;;;;;33.63;20.63;;;;;;;0.49;100.00;96380.38;5031571;28;20281;-63
2022/12/04 00:49:44;;;;;;;33.53;21.73;;;;;;;0.53;100.00;96384.19;5032712;28;20220;-63
2022/12/04 00:52:09;;;;;;;32.53;19.87;;;;;;;0.38;100.00;96371.28;5032594;28;20259;-63
2022/12/04 00:54:34;;;;;;;31.63;19.97;;;;;;;0.50;100.00;96368.28;5033113;28;20532;-62
2022/12/04 00:56:59;;;;;;;29.07;20.17;;;;;;;0.52;100.00;96371.47;5014785;28;20229;-63
2022/12/04 00:59:25;;;;;;;33.03;21.57;;;;;;;0.35;100.00;96374.19;5032878;28;20637;-63
2022/12/04 01:01:50;;;;;;;28.77;19.80;;;;;;;0.28;100.00;96382.78;5031769;28;20318;-64
2022/12/04 01:04:15;;;;;;;28.40;19.10;;;;;;;0.11;100.00;96382.09;5032630;28;20321;-63
2022/12/04 01:06:41;;;;;;;33.20;20.43;;;;;;;0.05;100.00;96380.22;5015029;28;20188;-62
2022/12/04 01:09:06;;;;;;;30.40;19.83;;;;;;;0.21;100.00;96374.94;5032810;28;20650;-62
2022/12/04 01:11:32;;;;;;;29.63;19.03;;;;;;;0.24;100.00;96363.47;5032807;28;20198;-62
2022/12/04 01:13:59;;;;;;;28.23;18.93;;;;;;;0.31;100.00;96364.41;5032457;28;20187;-63
2022/12/04 01:16:28;;;;;;;30.00;19.67;;;;;;;0.45;100.00;96368.00;5032105;28;20191;-63
2022/12/04 01:18:53;;;;;;;27.77;19.77;;;;;;;0.30;100.00;96365.38;5032606;28;20190;-63
2022/12/04 01:21:19;;;;;;;26.60;19.03;;;;;;;0.36;100.00;96356.94;5031579;28;20233;-63
2022/12/04 01:23:45;;;;;;;30.07;19.83;;;;;;;0.24;100.00;96368.63;5032313;28;20670;-63
2022/12/04 01:26:11;;;;;;;26.63;19.33;;;;;;;0.15;100.00;96367.91;5032762;28;20222;-62
2022/12/04 01:28:38;;;;;;;30.57;20.57;;;;;;;0.29;100.00;96369.72;5032397;28;20691;-62
2022/12/04 01:31:10;;;;;;;32.97;20.33;;;;;;;0.29;100.00;96361.97;5032407;28;20190;-62
2022/12/04 01:33:37;;;;;;;30.73;19.63;;;;;;;0.22;100.00;96370.59;5032734;28;20237;-62
2022/12/04 01:36:05;;;;;;;28.97;20.07;;;;;;;0.21;100.00;96363.84;5032846;28;20183;-63
2022/12/04 01:38:30;;;;;;;28.53;18.07;;;;;;;0.15;100.00;96362.75;5032371;28;20193;-62
2022/12/04 01:40:57;;;;;;;27.73;19.10;;;;;;;0.11;100.00;96368.41;5032257;28;20202;-62
2022/12/04 01:43:25;;;;;;;29.47;19.27;;;;;;;0.10;100.00;96361.66;5014715;28;20201;-62
2022/12/04 01:45:55;;;;;;;30.07;18.57;;;;;;;0.10;100.00;96357.31;5032373;28;20643;-63
2022/12/04 01:48:31;;;;;;;31.33;18.90;;;;;;;0.21;100.00;96359.47;5032431;28;20392;-62
2022/12/04 01:51:17;;;;;;;27.67;18.97;;;;;;;0.20;100.00;96359.66;5014244;28;20585;-63
2022/12/04 01:53:47;;;;;;;29.20;18.37;;;;;;;0.22;100.00;96370.59;5032407;28;20193;-62
2022/12/04 01:56:13;;;;;;;29.97;18.40;;;;;;;0.28;100.00;96365.53;5032156;28;20514;-63
2022/12/04 01:58:42;;;;;;;28.77;19.57;;;;;;;0.19;100.00;96368.34;5031762;28;20186;-63
2022/12/04 02:01:08;;;;;;;28.67;18.00;;;;;;;0.20;100.00;96367.38;5032091;28;20241;-62
2022/12/04 02:03:34;;;;;;;25.80;18.47;;;;;;;0.29;100.00;96379.22;5031827;28;20597;-62
2022/12/04 02:06:00;;;;;;;28.33;18.20;;;;;;;0.20;100.00;96365.59;5032269;28;20189;-63
2022/12/04 02:08:27;;;;;;;30.53;18.90;;;;;;;0.12;100.00;96364.84;5032105;28;20191;-63
2022/12/04 02:11:04;;;;;;;31.47;21.13;;;;;;;0.16;100.00;96361.78;5032076;28;20195;-63
2022/12/04 02:13:46;;;;;;;28.37;19.73;;;;;;;0.29;100.00;96366.34;5032463;28;20197;-63
2022/12/04 02:16:22;;;;;;;31.10;20.03;;;;;;;0.41;100.00;96352.06;5031853;28;20214;-63
2022/12/04 02:19:23;;;;;;;34.57;19.93;;;;;;;0.25;100.00;96358.16;5029553;28;20221;-63
2022/12/04 02:21:51;;;;;;;32.63;20.40;;;;;;;0.27;100.00;96358.00;5031199;28;20210;-63
2022/12/04 02:24:53;;;;;;;34.43;20.73;;;;;;;0.31;100.00;96352.31;5031659;28;20183;-63
2022/12/04 02:27:39;;;;;;;31.93;21.67;;;;;;;0.47;100.00;96341.06;5021816;28;20244;-63
2022/12/04 02:30:10;;;;;;;34.67;21.23;;;;;;;0.33;100.00;96345.22;5032407;28;20581;-62
2022/12/04 02:32:44;;;;;;;34.90;22.60;;;;;;;0.64;100.00;96344.28;5031982;28;20221;-63
2022/12/04 02:35:35;;;;;;;34.73;21.30;;;;;;;0.47;100.00;96350.56;5032131;28;20265;-63
2022/12/04 02:38:26;;;;;;;33.33;21.73;;;;;;;0.40;100.00;96340.16;5032007;28;20186;-63
2022/12/04 02:41:12;;;;;;;34.70;21.80;;;;;;;0.54;100.00;96346.31;5017331;28;20659;-63
2022/12/04 02:43:42;;;;;;;35.50;22.70;;;;;;;0.61;100.00;96345.47;5033694;28;20544;-63
2022/12/04 02:46:19;;;;;;;35.13;22.17;;;;;;;0.44;100.00;96344.00;5035028;28;20189;-63
2022/12/04 02:48:48;;;;;;;35.10;22.70;;;;;;;0.47;100.00;96341.06;5031870;28;20178;-62
2022/12/04 02:51:17;;;;;;;34.03;21.97;;;;;;;0.39;100.00;96339.34;5019456;28;20174;-63
2022/12/04 02:53:49;;;;;;;37.70;21.10;;;;;;;0.25;100.00;96340.13;5035337;28;20262;-62
2022/12/04 02:56:20;;;;;;;37.10;22.03;;;;;;;0.28;100.00;96326.88;5035034;28;20171;-63
2022/12/04 02:58:51;;;;;;;38.43;22.33;;;;;;;0.17;100.00;96331.66;5035176;28;20655;-63
2022/12/04 03:01:22;;;;;;;35.93;22.47;;;;;;;0.26;100.00;96326.25;5034576;28;20328;-63
2022/12/04 03:03:55;;;;;;;33.33;21.53;;;;;;;0.34;100.00;96331.34;5035084;28;20174;-63
2022/12/04 03:06:23;;;;;;;36.77;21.77;;;;;;;0.38;100.00;96334.38;5034974;28;20181;-63
2022/12/04 03:08:55;;;;;;;36.93;21.80;;;;;;;0.43;100.00;96332.09;5035212;28;20266;-63
2022/12/04 03:11:21;;;;;;;34.73;20.13;;;;;;;0.40;100.00;96332.41;5034637;28;20179;-63
2022/12/04 03:13:55;;;;;;;34.03;20.50;;;;;;;0.25;100.00;96329.81;5035029;28;20174;-63
2022/12/04 03:16:30;;;;;;;34.00;19.43;;;;;;;0.34;100.00;96320.22;5034724;28;20182;-63
2022/12/04 03:19:00;;;;;;;35.33;20.83;;;;;;;0.26;100.00;96312.56;5017305;28;20629;-63
2022/12/04 03:21:31;;;;;;;34.80;21.17;;;;;;;0.36;100.00;96328.59;5033277;28;20663;-63
2022/12/04 03:24:23;;;;;;;35.83;20.83;;;;;;;0.55;100.00;96325.53;5034840;28;20182;-63
2022/12/04 03:27:09;;;;;;;33.13;20.47;;;;;;;0.47;100.00;96330.75;5034703;28;20244;-63
2022/12/04 03:29:49;;;;;;;37.67;22.90;;;;;;;0.35;100.00;96317.47;5034851;28;20261;-62
2022/12/04 03:32:25;;;;;;;34.60;20.27;;;;;;;0.44;100.00;96310.50;5034804;28;20194;-63
2022/12/04 03:35:04;;;;;;;32.27;20.07;;;;;;;0.49;100.00;96309.97;5034371;28;20193;-64
2022/12/04 03:37:58;;;;;;;34.17;20.67;;;;;;;0.60;100.00;96317.28;5034548;28;20186;-63
2022/12/04 03:40:37;;;;;;;34.40;19.77;;;;;;;0.31;100.00;96305.94;5030187;28;20206;-63
2022/12/04 03:43:24;;;;;;;29.43;19.80;;;;;;;0.52;100.00;96305.25;5033982;28;20186;-63
2022/12/04 03:45:58;;;;;;;32.07;20.13;;;;;;;0.58;100.00;96303.75;5034600;28;20177;-62
2022/12/04 03:48:46;;;;;;;33.13;20.67;;;;;;;0.65;100.00;96313.19;5034256;28;20240;-62
2022/12/04 03:51:18;;;;;;;34.00;20.23;;;;;;;0.69;100.00;96308.47;5034056;28;20215;-63
2022/12/04 03:53:51;;;;;;;33.20;19.10;;;;;;;0.50;100.00;96307.22;5033862;28;20549;-63
2022/12/04 03:56:25;;;;;;;33.10;19.40;;;;;;;0.44;100.00;96302.75;5032777;28;20171;-63
2022/12/04 03:58:56;;;;;;;34.73;21.17;;;;;;;0.33;100.00;96311.72;5033964;28;20167;-62
2022/12/04 04:01:27;;;;;;;32.53;19.77;;;;;;;0.37;100.00;96320.69;5033322;28;20237;-63
2022/12/04 04:03:56;;;;;;;35.67;21.27;;;;;;;0.34;100.00;96322.78;5033844;28;20221;-63
2022/12/04 04:06:26;;;;;;;32.63;20.23;;;;;;;0.40;100.00;96315.19;5033621;28;20206;-62
2022/12/04 04:08:55;;;;;;;32.17;18.90;;;;;;;0.46;100.00;96324.00;5033832;28;20269;-63
2022/12/04 04:11:27;;;;;;;31.87;19.73;;;;;;;0.55;100.00;96317.81;5033730;28;20182;-62
2022/12/04 04:25:43;;;;;;;32.27;19.37;;;;;;;0.46;100.00;96344.59;5033642;28;20299;-62
2022/12/04 04:28:28;;;;;;;30.57;18.67;;;;;;;0.29;100.00;96340.56;5033445;28;20209;-62
2022/12/04 04:30:59;;;;;;;30.50;19.63;;;;;;;0.31;100.00;96339.44;5033118;28;20277;-63
2022/12/04 04:33:26;;;;;;;31.40;19.60;;;;;;;0.49;100.00;96340.91;5033227;28;20233;-62
2022/12/04 04:36:01;;;;;;;30.30;18.93;;;;;;;0.64;100.00;96342.53;5033260;28;20278;-62
2022/12/04 04:38:49;;;;;;;29.47;18.47;;;;;;;0.60;100.00;96340.47;5033506;28;20167;-62
2022/12/04 04:41:31;;;;;;;29.97;18.63;;;;;;;0.79;100.00;96337.38;5033200;28;20272;-62
2022/12/04 04:44:07;;;;;;;28.90;19.00;;;;;;;0.53;100.00;96334.41;5032995;28;20178;-62
2022/12/04 04:46:38;;;;;;;29.60;17.77;;;;;;;0.71;100.00;96340.03;5014953;28;20281;-62
2022/12/04 04:49:07;;;;;;;30.37;17.63;;;;;;;0.60;100.00;96325.00;5032505;28;20503;-62
2022/12/04 04:51:34;;;;;;;29.33;17.37;;;;;;;0.62;100.00;96328.19;5033001;28;20214;-62
2022/12/04 04:54:03;;;;;;;29.50;17.43;;;;;;;0.40;100.00;96332.41;5032875;28;20223;-63
2022/12/04 04:56:29;;;;;;;28.90;19.03;;;;;;;0.30;100.00;96329.28;5032278;28;20203;-62
2022/12/04 04:58:54;;;;;;;29.13;18.63;;;;;;;0.24;100.00;96335.13;5032943;28;20222;-62
2022/12/04 05:01:23;;;;;;;29.87;17.90;;;;;;;0.44;100.00;96338.84;5032324;28;20309;-62
2022/12/04 05:03:48;;;;;;;28.43;18.20;;;;;;;0.57;100.00;96340.81;5032470;28;20203;-62
2022/12/04 05:06:14;;;;;;;28.63;17.63;;;;;;;0.54;100.00;96341.97;5032236;28;20213;-63
2022/12/04 05:08:39;;;;;;;30.27;18.00;;;;;;;0.18;100.00;96343.56;5032764;28;20193;-62
2022/12/04 05:11:05;;;;;;;27.63;17.17;;;;;;;0.24;100.00;96343.66;5032681;28;20225;-62
2022/12/04 05:13:31;;;;;;;31.03;18.50;;;;;;;0.31;100.00;96342.00;5032770;28;20193;-62
2022/12/04 05:16:02;;;;;;;27.57;17.57;;;;;;;0.03;100.00;96337.56;5032629;28;20214;-63
2022/12/04 05:18:28;;;;;;;27.33;17.30;;;;;;;0.17;100.00;96341.97;5032683;28;20193;-62
2022/12/04 05:20:53;;;;;;;28.33;17.30;;;;;;;0.16;100.00;96338.59;5030856;28;20603;-62
2022/12/04 05:23:19;;;;;;;26.83;16.87;;;;;;;0.12;100.00;96339.09;5032580;28;20236;-63
2022/12/04 05:25:44;;;;;;;29.40;16.33;;;;;;;0.34;100.00;96335.69;5032610;28;20183;-63
2022/12/04 05:28:10;;;;;;;25.90;16.23;;;;;;;0.16;100.00;96336.00;5032395;28;20269;-63
2022/12/04 05:30:35;;;;;;;28.90;17.07;;;;;;;0.26;100.00;96331.41;5014845;28;20181;-63
2022/12/04 05:33:01;;;;;;;29.00;17.63;;;;;;;0.31;100.00;96331.69;5032557;28;20214;-63
2022/12/04 05:35:26;;;;;;;30.00;18.13;;;;;;;0.16;100.00;96332.63;5032438;28;20214;-63
2022/12/04 05:37:51;;;;;;;28.60;16.90;;;;;;;0.20;100.00;96339.03;5032327;28;20198;-63
2022/12/04 05:40:17;;;;;;;26.17;16.03;;;;;;;0.34;100.00;96330.53;5032560;28;20190;-63
2022/12/04 05:42:42;;;;;;;28.20;17.03;;;;;;;0.38;100.00;96329.22;5032514;28;20210;-63
2022/12/04 05:45:08;;;;;;;28.53;16.07;;;;;;;0.23;100.00;96324.03;5032288;28;20183;-63
2022/12/04 05:47:40;;;;;;;28.70;17.23;;;;;;;0.28;100.00;96323.53;5032203;28;20214;-63
2022/12/04 05:50:07;;;;;;;29.93;17.97;;;;;;;0.30;100.00;96324.13;5016476;28;20183;-63
2022/12/04 05:52:33;;;;;;;27.70;16.23;;;;;;;0.13;100.00;96325.22;5032208;28;20260;-62
2022/12/04 05:54:58;;;;;;;28.23;16.90;;;;;;;0.26;100.00;96320.31;5032320;28;20186;-62
2022/12/04 05:57:23;;;;;;;29.77;17.47;;;;;;;0.24;100.00;96332.56;5032204;28;20268;-62
2022/12/04 05:59:49;;;;;;;26.93;17.73;;;;;;;0.30;100.00;96330.09;5032333;28;20559;-63
2022/12/04 06:02:15;;;;;;;26.67;16.67;;;;;;;0.24;100.00;96325.63;5013500;28;20222;-62
2022/12/04 06:04:40;;;;;;;30.47;17.70;;;;;;;0.25;100.00;96337.53;5032439;28;20671;-62
2022/12/04 06:07:05;;;;;;;27.43;17.47;;;;;;;0.30;100.00;96334.44;5014370;28;20217;-62
2022/12/04 06:09:31;;;;;;;24.83;16.17;;;;;;;0.22;100.00;96337.09;5032146;28;20178;-62
2022/12/04 06:11:57;;;;;;;27.40;16.40;;;;;;;0.38;100.00;96332.63;5032119;28;20530;-63
2022/12/04 06:14:23;;;;;;;27.93;16.67;;;;;;;0.51;100.00;96341.50;5032270;28;20258;-63
2022/12/04 06:16:48;;;;;;;27.53;16.70;;;;;;;0.28;100.00;96326.09;5032078;28;20201;-63
2022/12/04 06:19:17;;;;;;;27.13;17.13;;;;;;;0.32;100.00;96320.41;5033596;28;20191;-63
2022/12/04 06:21:45;;;;;;;28.10;16.83;;;;;;;0.36;100.00;96326.81;5035567;28;20664;-63
2022/12/04 06:24:16;;;;;;;29.30;17.57;;;;;;;0.31;100.00;96330.91;5035942;28;20266;-63
2022/12/04 06:26:41;;;;;;;25.50;16.17;;;;;;;0.30;100.00;96322.34;5018085;28;20187;-63
2022/12/04 06:29:08;;;;;;;27.33;16.70;;;;;;;0.43;100.00;96315.81;5035387;28;20198;-64
2022/12/04 06:31:35;;;;;;;27.93;16.67;;;;;;;0.43;100.00;96321.78;5036112;28;20187;-63
2022/12/04 06:34:00;;;;;;;28.57;17.67;;;;;;;0.32;100.00;96319.63;5035891;28;20247;-62
2022/12/04 06:36:26;;;;;;;32.50;17.73;;;;;;;0.45;100.00;96319.03;5035909;28;20740;-63
2022/12/04 06:38:54;;;;;;;28.33;16.47;;;;;;;0.33;100.00;96321.22;5018267;28;20268;-63
2022/12/04 06:41:20;;;;;;;28.27;17.20;;;;;;;0.38;100.00;96334.38;5035388;28;20349;-63
2022/12/04 06:43:45;;;;;;;28.20;16.33;;;;;;;0.45;100.00;96324.19;5035762;28;20655;-63
2022/12/04 06:46:18;;;;;;;27.80;17.10;;;;;;;0.59;100.00;96326.78;5035648;28;20264;-63
2022/12/04 06:48:43;;;;;;;27.93;16.73;;;;;;;0.69;100.00;96335.06;5035663;28;20176;-63
2022/12/04 06:51:20;;;;;;;26.37;17.37;;;;;;;0.72;100.00;96326.19;5034903;28;20389;-63
2022/12/04 06:53:46;;;;;;;27.17;17.23;;;;;;;0.56;100.00;96327.13;5035504;28;20271;-63
2022/12/04 06:56:16;;;;;;;27.87;17.87;;;;;;;0.64;100.00;96333.97;5035326;28;20201;-63
2022/12/04 06:58:45;;;;;;;26.87;17.27;;;;;;;0.75;100.00;96331.78;5035225;28;20197;-63
2022/12/04 07:01:16;;;;;;;28.40;17.33;;;;;;;0.62;100.00;96334.16;5019386;28;20581;-63
2022/12/04 07:03:43;;;;;;;28.67;17.10;;;;;;;0.58;100.00;96332.91;5035247;28;20171;-63
2022/12/04 07:06:18;;;;;;;31.83;19.03;;;;;;;0.49;100.00;96333.97;5034811;28;20721;-63
2022/12/04 07:08:45;;;;;;;26.10;17.70;;;;;;;0.49;100.00;96333.16;5035413;28;20507;-63
2022/12/04 07:11:12;;;;;;;30.67;17.57;;;;;;;0.56;100.00;96334.84;5018985;28;20265;-63
2022/12/04 07:13:38;;;;;;;28.73;18.10;;;;;;;0.58;100.00;96335.47;5035227;28;20201;-63
2022/12/04 07:16:05;;;;;;;27.27;16.40;;;;;;;0.54;100.00;96339.41;5035210;28;20182;-63
2022/12/04 07:18:32;;;;;;;29.50;17.17;;;;;;;0.57;100.00;96339.03;5035047;28;20191;-63
2022/12/04 07:20:57;;;;;;;27.33;17.07;;;;;;;0.71;100.00;96337.47;5033107;28;20601;-63
2022/12/04 07:23:23;;;;;;;26.20;16.70;;;;;;;0.49;100.00;96328.00;5034816;28;20202;-63
2022/12/04 07:25:48;;;;;;;30.80;17.13;;;;;;;0.49;100.00;96333.16;5034276;28;20277;-62
2022/12/04 07:28:14;;;;;;;28.93;18.07;;;;;;;0.73;100.00;96327.75;5033888;28;20190;-63
2022/12/04 07:30:39;;;;;;;29.03;17.60;;;;;;;0.62;100.00;96329.00;5033913;28;20191;-62
2022/12/04 07:33:04;;;;;;;28.07;16.30;;;;;;;0.57;100.00;96330.50;5034304;28;20193;-63
2022/12/04 07:35:30;;;;;;;25.47;16.30;;;;;;;0.56;100.00;96329.69;5034498;28;20183;-63
2022/12/04 07:37:56;;;;;;;26.10;16.57;;;;;;;0.46;100.00;96333.50;5034667;28;20182;-62
2022/12/04 07:40:21;;;;;;;28.13;16.47;;;;;;;0.51;100.00;96337.16;5034406;28;20191;-62
2022/12/04 07:42:46;;;;;;;28.03;15.83;;;;;;;0.59;100.00;96344.81;5034706;28;20210;-62
2022/12/04 07:45:12;;;;;;;28.10;16.70;;;;;;;0.78;100.00;96334.00;5034111;28;20186;-63
2022/12/04 07:47:37;;;;;;;27.50;15.83;;;;;;;0.70;100.00;96330.69;5034419;28;20243;-63
2022/12/04 07:50:04;;;;;;;27.80;15.87;;;;;;;0.71;100.00;96337.47;5034367;28;20191;-63
2022/12/04 07:52:30;;;;;;;27.97;16.60;;;;;;;0.62;100.00;96347.03;5034517;28;20240;-63
2022/12/04 07:54:56;;;;;;;25.87;16.03;;;;;;;0.68;100.00;96343.75;5034610;28;20210;-63
2022/12/04 07:57:21;;;;;;;25.40;15.03;;;;;;;0.65;100.00;96341.56;5033261;28;20638;-62
2022/12/04 07:59:47;;;;;;;26.37;15.10;;;;;;;0.75;100.00;96344.66;5033761;28;20236;-63
2022/12/04 08:02:12;;;;;;;25.73;15.23;;;;;;;0.79;100.00;96345.09;5033873;28;20226;-63
2022/12/04 08:04:37;;;;;;;24.93;15.47;;;;;;;0.78;100.00;96339.16;5033642;28;20341;-63
2022/12/04 08:07:04;;;;;;;24.90;15.70;;;;;;;0.92;100.00;96344.50;5033747;28;20225;-63
2022/12/04 08:09:29;;;;;;;26.80;16.00;;;;;;;0.78;100.00;96346.88;5033767;28;20281;-63
2022/12/04 08:11:54;;;;;;;20.63;14.57;;;;;;;1.05;100.00;96334.38;5034158;28;20274;-63
2022/12/04 08:14:20;;;;;;;22.10;14.43;;;;;;;0.99;100.00;96324.75;5016592;28;20194;-63
2022/12/04 08:16:48;;;;;;;23.33;14.20;;;;;;;1.11;100.00;96331.09;5033880;28;20183;-63
2022/12/04 08:19:13;;;;;;;24.40;18.23;;;;;;;1.05;100.00;96327.44;5030800;28;20229;-63
2022/12/04 08:21:39;;;;;;;22.53;16.33;;;;;;;1.10;100.00;96334.63;5033720;28;20229;-63
2022/12/04 08:24:04;;;;;;;24.87;16.80;;;;;;;1.06;100.00;96339.34;5033832;28;20190;-63
2022/12/04 08:26:32;;;;;;;21.70;16.70;;;;;;;0.92;100.00;96347.09;5033275;28;20183;-63
2022/12/04 08:28:58;;;;;;;26.27;18.27;;;;;;;1.03;100.00;96349.22;5032678;28;20217;-61
2022/12/04 08:31:26;;;;;;;27.63;16.80;;;;;;;2.15;100.00;96343.56;5033147;28;20198;-61
2022/12/04 08:33:55;;;;;;;23.97;15.90;;;;;;;1.86;100.00;96349.66;5033077;28;20273;-60
2022/12/04 08:36:21;;;;;;;25.17;15.47;;;;;;;1.49;100.00;96353.22;5033233;28;20178;-63
2022/12/04 08:38:47;;;;;;;23.03;15.40;;;;;;;1.23;100.00;96353.66;5033575;28;20182;-63
2022/12/04 08:41:15;;;;;;;26.73;16.70;;;;;;;1.32;100.00;96359.53;5029623;28;20298;-63
2022/12/04 08:43:41;;;;;;;24.93;15.93;;;;;;;1.54;100.00;96358.63;5032953;28;20186;-61
2022/12/04 08:46:10;;;;;;;24.17;16.03;;;;;;;1.36;100.00;96360.78;5033303;28;20228;-63
2022/12/04 08:48:36;;;;;;;24.80;16.60;;;;;;;1.12;100.00;96353.31;5032220;28;20191;-62
2022/12/04 08:51:03;;;;;;;25.20;15.47;;;;;;;1.25;100.00;96358.66;5033322;28;20186;-62
2022/12/04 08:53:29;;;;;;;22.90;16.27;;;;;;;1.12;100.00;96369.59;5033214;28;20183;-62
2022/12/04 08:55:55;;;;;;;22.97;15.20;;;;;;;0.81;100.00;96374.91;5033501;28;20181;-62
2022/12/04 08:58:21;;;;;;;25.37;16.90;;;;;;;0.87;100.00;96383.72;5032653;28;20187;-64
2022/12/04 09:00:47;;;;;;;22.37;15.03;;;;;;;0.99;100.00;96377.16;5032450;28;20233;-64
2022/12/04 09:03:17;;;;;;;25.97;17.23;;;;;;;1.08;100.00;96370.13;5032552;28;20182;-62
2022/12/04 09:05:44;;;;;;;24.33;16.57;;;;;;;0.93;100.00;96388.19;5032627;28;20179;-64
2022/12/04 09:08:10;;;;;;;22.37;16.30;;;;;;;1.13;100.00;96380.72;5033230;28;20186;-62
2022/12/04 09:10:35;;;;;;;23.83;15.87;;;;;;;1.16;100.00;96378.59;5032784;28;20573;-62
2022/12/04 09:13:01;;;;;;;24.60;14.50;;;;;;;1.20;100.00;96372.09;5032919;28;20186;-62
2022/12/04 09:15:26;;;;;;;21.77;15.43;;;;;;;1.27;100.00;96381.72;5032719;28;20269;-63
2022/12/04 09:17:52;;;;;;;28.57;17.53;;;;;;;1.16;100.00;96388.94;5032339;28;20191;-62
2022/12/04 09:20:17;;;;;;;23.43;17.20;;;;;;;1.32;100.00;96381.97;5031646;28;20179;-62
2022/12/04 09:22:42;;;;;;;24.30;16.10;;;;;;;1.27;100.00;96382.50;5032623;28;20214;-63
2022/12/04 09:25:08;;;;;;;25.20;15.63;;;;;;;1.33;100.00;96378.41;5015069;28;20640;-63
2022/12/04 09:27:40;;;;;;;26.00;16.80;;;;;;;1.21;100.00;96365.97;5032398;28;20186;-63
2022/12/04 09:30:09;;;;;;;24.20;16.07;;;;;;;1.34;100.00;96364.53;5032512;28;20178;-62
2022/12/04 09:32:35;;;;;;;28.93;17.60;;;;;;;1.18;100.00;96355.97;5022557;28;20290;-63
2022/12/04 09:35:00;;;;;;;28.73;19.00;;;;;;;1.33;100.00;96343.09;5032292;28;20206;-63
2022/12/04 09:37:25;;;;;;;30.93;18.50;;;;;;;1.38;100.00;96342.53;5032642;28;20185;-63
2022/12/04 09:39:51;;;;;;;24.37;17.20;;;;;;;1.34;100.00;96343.88;5032773;28;20214;-62
2022/12/04 09:42:16;;;;;;;28.07;18.77;;;;;;;1.28;100.00;96339.44;5032710;28;20285;-61
2022/12/04 09:44:44;;;;;;;27.23;17.77;;;;;;;1.43;100.00;96330.69;5032685;28;20633;-62
2022/12/04 09:47:21;;;;;;;28.67;18.70;;;;;;;1.24;100.00;96331.25;5031702;28;20186;-63
2022/12/04 09:49:53;;;;;;;26.93;18.67;;;;;;;1.19;100.00;96325.81;5032599;28;20205;-63
2022/12/04 09:52:42;;;;;;;27.97;19.30;;;;;;;1.50;100.00;96310.91;5033920;28;20224;-62
2022/12/04 09:55:14;;;;;;;25.50;16.83;;;;;;;1.52;100.00;96305.56;5036218;28;20182;-63
2022/12/04 09:57:44;;;;;;;29.03;18.97;;;;;;;1.42;100.00;96302.47;5036503;28;20167;-63
2022/12/04 10:00:12;;;;;;;29.27;18.03;;;;;;;1.43;100.00;96297.13;5035809;28;20281;-64
2022/12/04 10:02:40;;;;;;;29.30;19.17;;;;;;;1.33;100.00;96293.22;5018014;28;20226;-62
2022/12/04 10:05:15;;;;;;;29.80;19.20;;;;;;;1.39;100.00;96293.31;5035942;28;20189;-63
2022/12/04 10:07:54;;;;;;;26.33;19.07;;;;;;;1.43;100.00;96288.59;5021057;28;20170;-62
2022/12/04 10:11:07;;;;;;;30.17;18.13;;;;;;;1.44;100.00;96285.81;5036239;28;20244;-63
2022/12/04 10:13:42;;;;;;;29.03;18.97;;;;;;;1.41;100.00;96290.53;5013796;28;20550;-63
2022/12/04 10:16:20;;;;;;;28.07;17.97;;;;;;;1.50;100.00;96290.25;5036084;28;20184;-62
2022/12/04 10:19:13;;;;;;;27.97;18.83;;;;;;;1.50;100.00;96279.13;5034349;28;20341;-63
2022/12/04 10:21:49;;;;;;;27.10;18.23;;;;;;;1.46;100.00;96283.84;5035745;28;20215;-63
2022/12/04 10:24:35;;;;;;;30.53;19.00;;;;;;;1.46;100.00;96286.44;5036458;28;20180;-62
2022/12/04 10:27:07;;;;;;;29.50;19.20;;;;;;;1.33;100.00;96283.72;5035197;28;20182;-63
2022/12/04 10:29:36;;;;;;;30.33;19.30;;;;;;;1.40;100.00;96281.97;5035576;28;20186;-63
2022/12/04 10:32:24;;;;;;;33.73;19.83;;;;;;;1.47;100.00;96275.13;5035821;28;20198;-62
2022/12/04 10:34:54;;;;;;;30.43;20.30;;;;;;;1.21;100.00;96285.16;5035657;28;20639;-62
2022/12/04 10:37:21;;;;;;;30.83;20.57;;;;;;;1.20;100.00;96304.19;5035423;28;20189;-64
2022/12/04 10:40:10;;;;;;;29.47;19.90;;;;;;;1.21;100.00;96308.38;5035711;28;20187;-62
2022/12/04 10:42:45;;;;;;;33.03;21.27;;;;;;;1.19;100.00;96308.56;5035651;28;20191;-63
2022/12/04 10:45:11;;;;;;;33.13;20.83;;;;;;;1.28;100.00;96316.22;5035386;28;20178;-63
2022/12/04 10:47:42;;;;;;;28.30;19.90;;;;;;;1.11;100.00;96305.28;5035299;28;20198;-63
2022/12/04 10:50:17;;;;;;;33.50;20.67;;;;;;;1.22;100.00;96310.78;5035072;28;20632;-63
2022/12/04 10:52:42;;;;;;;30.40;21.63;;;;;;;1.18;100.00;96308.72;5035442;28;20214;-64
2022/12/04 10:55:08;;;;;;;33.70;20.83;;;;;;;1.32;100.00;96307.91;5035313;28;20296;-63
2022/12/04 10:57:36;;;;;;;33.57;20.97;;;;;;;1.20;100.00;96301.63;5035371;28;20179;-63
2022/12/04 11:00:21;;;;;;;34.53;19.63;;;;;;;1.28;100.00;96290.41;5035138;28;20631;-64
2022/12/04 11:02:46;;;;;;;30.20;18.90;;;;;;;1.22;100.00;96295.31;5034672;28;20296;-63
2022/12/04 11:05:34;;;;;;;31.60;18.63;;;;;;;1.39;100.00;96288.16;5034088;28;20226;-63
2022/12/04 11:08:03;;;;;;;32.43;19.00;;;;;;;1.42;100.00;96289.56;5035033;28;20182;-63
2022/12/04 11:10:42;;;;;;;29.30;18.30;;;;;;;1.30;100.00;96286.63;5034725;28;20542;-64
2022/12/04 11:13:14;;;;;;;29.80;18.80;;;;;;;1.25;100.00;96294.94;5034774;28;20597;-63
2022/12/04 11:15:49;;;;;;;30.60;19.37;;;;;;;1.44;100.00;96288.41;5034386;28;20564;-64
2022/12/04 11:18:18;;;;;;;28.07;17.87;;;;;;;1.53;100.00;96287.31;5033519;28;20198;-64
2022/12/04 11:20:51;;;;;;;29.77;19.07;;;;;;;1.33;100.00;96298.41;5037300;28;20233;-63
2022/12/04 11:23:17;;;;;;;28.40;17.63;;;;;;;1.34;100.00;96284.50;5034643;28;20202;-62
2022/12/04 11:25:48;;;;;;;30.17;18.37;;;;;;;1.39;100.00;96275.25;5034210;28;20236;-64
2022/12/04 11:28:17;;;;;;;31.97;18.60;;;;;;;1.53;100.00;96274.41;5034521;28;20190;-63
2022/12/04 11:30:48;;;;;;;32.73;19.20;;;;;;;1.24;100.00;96267.50;5031738;28;20195;-63
2022/12/04 11:33:18;;;;;;;26.10;17.37;;;;;;;1.38;100.00;96255.56;5035045;28;20187;-63
2022/12/04 11:35:52;;;;;;;29.83;18.20;;;;;;;1.12;100.00;96273.31;5016854;28;20210;-65
2022/12/04 11:38:22;;;;;;;30.23;18.17;;;;;;;1.26;100.00;96280.25;5034757;28;20175;-63
2022/12/04 11:40:51;;;;;;;33.63;17.97;;;;;;;1.27;100.00;96299.13;5034867;28;20183;-64